createdAt,value
2022-10-19T00:00:57.615Z,0.00
2022-10-19T00:01:57.629Z,0.00
2022-10-19T00:02:57.595Z,0.00
2022-10-19T00:03:57.597Z,0.00
2022-10-19T00:04:57.620Z,0.00
2022-10-19T00:05:57.566Z,0.00
2022-10-19T00:06:57.596Z,0.00
2022-10-19T00:07:57.553Z,0.00
2022-10-19T00:08:57.556Z,0.00
2022-10-19T00:09:57.556Z,0.00
2022-10-19T00:10:57.526Z,0.00
2022-10-19T00:11:57.528Z,0.00
2022-10-19T00:12:57.512Z,0.00
2022-10-19T00:13:57.510Z,0.00
2022-10-19T00:14:57.506Z,0.00
2022-10-19T00:15:57.965Z,0.00
2022-10-19T00:16:57.486Z,0.00
2022-10-19T00:17:57.480Z,0.00
2022-10-19T00:18:57.478Z,0.00
2022-10-19T00:19:57.467Z,0.00
2022-10-19T00:20:58.116Z,0.00
2022-10-19T00:21:57.469Z,0.00
2022-10-19T00:22:57.470Z,0.00
2022-10-19T00:23:57.449Z,0.00
2022-10-19T00:24:57.427Z,0.00
2022-10-19T00:25:57.424Z,0.00
2022-10-19T00:26:57.446Z,0.00
2022-10-19T00:27:57.408Z,0.00
2022-10-19T00:28:57.491Z,0.00
2022-10-19T00:29:57.446Z,0.00
2022-10-19T00:30:57.385Z,0.00
2022-10-19T00:31:57.386Z,0.00
2022-10-19T00:32:57.381Z,0.00
2022-10-19T00:33:57.392Z,0.00
2022-10-19T00:34:57.396Z,0.00
2022-10-19T00:35:57.363Z,0.00
2022-10-19T00:36:57.341Z,0.00
2022-10-19T00:37:57.347Z,0.00
2022-10-19T00:38:57.374Z,0.00
2022-10-19T00:39:57.326Z,0.00
2022-10-19T00:40:57.319Z,0.00
2022-10-19T00:41:57.322Z,0.00
2022-10-19T00:42:57.299Z,0.00
2022-10-19T00:43:57.314Z,0.00
2022-10-19T00:44:57.281Z,0.00
2022-10-19T00:45:57.274Z,0.00
2022-10-19T00:46:57.396Z,0.00
2022-10-19T00:47:57.266Z,0.00
2022-10-19T00:48:57.261Z,0.00
2022-10-19T00:49:57.884Z,0.00
2022-10-19T00:50:57.244Z,0.00
2022-10-19T00:51:57.797Z,0.00
2022-10-19T00:52:57.433Z,0.00
2022-10-19T00:53:58.151Z,0.00
2022-10-19T00:54:57.253Z,0.00
2022-10-19T00:55:57.218Z,0.00
2022-10-19T00:56:57.219Z,0.00
2022-10-19T00:57:57.216Z,0.00
2022-10-19T00:58:57.248Z,0.00
2022-10-19T00:59:57.181Z,0.00
2022-10-19T01:00:57.269Z,0.00
2022-10-19T01:01:57.167Z,0.00
2022-10-19T01:02:57.169Z,0.00
2022-10-19T01:03:57.151Z,0.00
2022-10-19T01:04:57.167Z,0.00
2022-10-19T01:05:57.149Z,0.00
2022-10-19T01:06:57.135Z,0.00
2022-10-19T01:07:57.119Z,0.00
2022-10-19T01:08:57.126Z,0.00
2022-10-19T01:09:57.131Z,0.00
2022-10-19T01:10:57.117Z,0.00
2022-10-19T01:11:57.523Z,0.00
2022-10-19T01:12:57.098Z,0.00
2022-10-19T01:13:57.075Z,0.00
2022-10-19T01:14:57.072Z,0.00
2022-10-19T01:15:57.085Z,0.00
2022-10-19T01:16:57.061Z,0.00
2022-10-19T01:17:57.053Z,0.00
2022-10-19T01:18:57.053Z,0.00
2022-10-19T01:19:57.042Z,0.00
2022-10-19T01:20:57.025Z,0.00
2022-10-19T01:21:57.035Z,0.00
2022-10-19T01:22:57.003Z,0.00
2022-10-19T01:23:57.003Z,0.00
2022-10-19T01:24:57.042Z,0.00
2022-10-19T01:25:56.993Z,0.00
2022-10-19T01:26:57.017Z,0.00
2022-10-19T01:27:56.970Z,0.00
2022-10-19T01:28:57.006Z,0.00
2022-10-19T01:29:56.962Z,0.00
2022-10-19T01:30:56.942Z,0.00
2022-10-19T01:31:56.958Z,0.00
2022-10-19T01:32:56.930Z,0.00
2022-10-19T01:34:56.927Z,0.00
2022-10-19T01:35:56.906Z,0.00
2022-10-19T01:36:56.902Z,0.00
2022-10-19T01:37:56.913Z,0.00
2022-10-19T01:38:56.885Z,0.00
2022-10-19T01:39:56.884Z,0.00
2022-10-19T01:40:56.888Z,0.00
2022-10-19T01:41:56.861Z,0.00
2022-10-19T01:42:56.904Z,0.00
2022-10-19T01:43:56.847Z,0.00
2022-10-19T01:44:56.844Z,0.00
2022-10-19T01:45:56.842Z,0.00
2022-10-19T01:46:56.841Z,0.00
2022-10-19T01:47:56.852Z,0.00
2022-10-19T01:48:56.877Z,0.00
2022-10-19T01:49:56.954Z,0.00
2022-10-19T01:50:56.808Z,0.00
2022-10-19T01:52:56.807Z,0.00
2022-10-19T01:53:56.789Z,0.00
2022-10-19T01:54:56.874Z,0.00
2022-10-19T01:55:56.766Z,0.00
2022-10-19T01:56:56.766Z,0.00
2022-10-19T01:57:56.836Z,0.00
2022-10-19T01:58:56.778Z,0.00
2022-10-19T01:59:56.747Z,0.00
2022-10-19T02:00:56.897Z,0.00
2022-10-19T02:01:57.002Z,0.00
2022-10-19T02:02:56.721Z,0.00
2022-10-19T02:03:56.723Z,0.00
2022-10-19T02:04:56.719Z,0.00
2022-10-19T02:05:56.701Z,0.00
2022-10-19T02:06:56.706Z,0.00
2022-10-19T02:07:56.697Z,0.00
2022-10-19T02:08:56.678Z,0.00
2022-10-19T02:09:56.697Z,0.00
2022-10-19T02:10:56.677Z,0.00
2022-10-19T02:11:57.252Z,0.00
2022-10-19T02:12:56.656Z,0.00
2022-10-19T02:13:56.658Z,0.00
2022-10-19T02:14:56.671Z,0.00
2022-10-19T02:15:56.638Z,0.00
2022-10-19T02:16:56.651Z,0.00
2022-10-19T02:17:56.640Z,0.00
2022-10-19T02:18:56.618Z,0.00
2022-10-19T02:19:56.800Z,0.00
2022-10-19T02:20:56.597Z,0.00
2022-10-19T02:21:56.606Z,0.00
2022-10-19T02:22:56.606Z,0.00
2022-10-19T02:23:56.584Z,0.00
2022-10-19T02:24:56.573Z,0.00
2022-10-19T02:25:56.598Z,0.00
2022-10-19T02:26:56.564Z,0.00
2022-10-19T02:27:56.556Z,0.00
2022-10-19T02:28:56.576Z,0.00
2022-10-19T02:29:56.542Z,0.00
2022-10-19T02:30:56.563Z,0.00
2022-10-19T02:31:56.545Z,0.00
2022-10-19T02:32:56.523Z,0.00
2022-10-19T02:33:56.530Z,0.00
2022-10-19T02:34:56.502Z,0.00
2022-10-19T02:35:56.501Z,0.00
2022-10-19T02:36:56.511Z,0.00
2022-10-19T02:37:56.495Z,0.00
2022-10-19T02:38:56.478Z,0.00
2022-10-19T02:39:56.480Z,0.00
2022-10-19T02:40:56.463Z,0.00
2022-10-19T02:41:56.448Z,0.00
2022-10-19T02:42:56.463Z,0.00
2022-10-19T02:43:56.625Z,0.00
2022-10-19T02:44:56.431Z,0.00
2022-10-19T02:45:56.438Z,0.00
2022-10-19T02:46:56.436Z,0.00
2022-10-19T02:47:56.409Z,0.00
2022-10-19T02:48:56.425Z,0.00
2022-10-19T02:49:56.395Z,0.00
2022-10-19T02:50:56.411Z,0.00
2022-10-19T02:51:56.383Z,0.00
2022-10-19T02:52:56.381Z,0.00
2022-10-19T02:53:57.401Z,0.00
2022-10-19T02:54:56.377Z,0.00
2022-10-19T02:55:56.381Z,0.00
2022-10-19T02:56:56.349Z,0.00
2022-10-19T02:57:56.332Z,0.00
2022-10-19T02:58:56.345Z,0.00
2022-10-19T02:59:56.320Z,0.00
2022-10-19T03:00:56.385Z,0.00
2022-10-19T03:01:56.564Z,0.00
2022-10-19T03:02:56.327Z,0.00
2022-10-19T03:03:56.302Z,0.00
2022-10-19T03:04:56.310Z,0.00
2022-10-19T03:05:56.277Z,0.00
2022-10-19T03:06:56.297Z,0.00
2022-10-19T03:07:56.267Z,0.00
2022-10-19T03:08:56.263Z,0.00
2022-10-19T03:09:56.274Z,0.00
2022-10-19T03:10:56.257Z,0.00
2022-10-19T03:11:56.349Z,0.00
2022-10-19T03:12:56.246Z,0.00
2022-10-19T03:13:56.241Z,0.00
2022-10-19T03:14:56.228Z,0.00
2022-10-19T03:15:56.223Z,0.00
2022-10-19T03:16:56.338Z,0.00
2022-10-19T03:17:56.223Z,0.00
2022-10-19T03:18:56.736Z,0.00
2022-10-19T03:19:56.183Z,0.00
2022-10-19T03:20:58.867Z,0.00
2022-10-19T03:21:56.165Z,0.00
2022-10-19T03:22:56.189Z,0.00
2022-10-19T03:23:56.164Z,0.00
2022-10-19T03:24:56.143Z,0.00
2022-10-19T03:25:56.134Z,0.00
2022-10-19T03:26:56.126Z,0.00
2022-10-19T03:27:56.125Z,0.00
2022-10-19T03:28:56.166Z,0.00
2022-10-19T03:29:56.119Z,0.00
2022-10-19T03:30:56.123Z,0.00
2022-10-19T03:31:56.095Z,0.00
2022-10-19T03:32:56.090Z,0.00
2022-10-19T03:33:56.115Z,0.00
2022-10-19T03:34:56.104Z,0.00
2022-10-19T03:35:56.067Z,0.00
2022-10-19T03:36:56.079Z,0.00
2022-10-19T03:37:56.052Z,0.00
2022-10-19T03:38:56.050Z,0.00
2022-10-19T03:39:56.038Z,0.00
2022-10-19T03:40:56.042Z,0.00
2022-10-19T03:41:56.047Z,0.00
2022-10-19T03:42:56.025Z,0.00
2022-10-19T03:43:56.076Z,0.00
2022-10-19T03:44:56.003Z,0.00
2022-10-19T03:45:56.008Z,0.00
2022-10-19T03:46:56.767Z,0.00
2022-10-19T03:47:55.984Z,0.00
2022-10-19T03:48:55.980Z,0.00
2022-10-19T03:49:55.972Z,0.00
2022-10-19T03:50:55.991Z,0.00
2022-10-19T03:51:55.973Z,0.00
2022-10-19T03:52:56.011Z,0.00
2022-10-19T03:53:56.167Z,0.00
2022-10-19T03:54:55.957Z,0.00
2022-10-19T03:55:55.958Z,0.00
2022-10-19T03:56:55.955Z,0.00
2022-10-19T03:57:55.930Z,0.00
2022-10-19T03:58:55.901Z,0.00
2022-10-19T03:59:55.903Z,0.00
2022-10-19T04:00:56.655Z,0.00
2022-10-19T04:01:55.898Z,0.00
2022-10-19T04:02:55.881Z,0.00
2022-10-19T04:03:55.879Z,0.00
2022-10-19T04:04:55.875Z,0.00
2022-10-19T04:05:55.884Z,0.00
2022-10-19T04:06:55.865Z,0.00
2022-10-19T04:07:55.840Z,0.00
2022-10-19T04:08:55.839Z,0.00
2022-10-19T04:09:55.843Z,0.00
2022-10-19T04:10:55.820Z,0.00
2022-10-19T04:11:55.854Z,0.00
2022-10-19T04:12:55.802Z,0.00
2022-10-19T04:13:55.836Z,0.00
2022-10-19T04:14:57.773Z,0.00
2022-10-19T04:15:55.789Z,0.00
2022-10-19T04:16:55.769Z,0.00
2022-10-19T04:17:55.779Z,0.00
2022-10-19T04:18:55.771Z,0.00
2022-10-19T04:19:55.761Z,0.00
2022-10-19T04:20:55.747Z,0.00
2022-10-19T04:21:55.745Z,0.00
2022-10-19T04:22:55.757Z,0.00
2022-10-19T04:23:55.717Z,0.00
2022-10-19T04:24:55.872Z,0.00
2022-10-19T04:25:55.728Z,0.00
2022-10-19T04:26:55.696Z,0.00
2022-10-19T04:27:55.698Z,0.00
2022-10-19T04:28:55.752Z,0.00
2022-10-19T04:29:55.700Z,0.00
2022-10-19T04:30:55.673Z,0.00
2022-10-19T04:31:55.678Z,0.00
2022-10-19T04:32:55.670Z,0.00
2022-10-19T04:33:55.671Z,0.00
2022-10-19T04:34:55.661Z,0.00
2022-10-19T04:35:56.028Z,0.00
2022-10-19T04:36:55.672Z,0.00
2022-10-19T04:37:55.625Z,0.00
2022-10-19T04:38:55.656Z,0.00
2022-10-19T04:39:55.617Z,0.00
2022-10-19T04:40:55.597Z,0.00
2022-10-19T04:41:55.607Z,0.00
2022-10-19T04:42:55.626Z,0.00
2022-10-19T04:43:55.594Z,0.00
2022-10-19T04:44:55.604Z,0.00
2022-10-19T04:45:55.577Z,0.00
2022-10-19T04:46:55.580Z,0.00
2022-10-19T04:47:55.561Z,0.00
2022-10-19T04:48:55.578Z,0.00
2022-10-19T04:49:55.537Z,0.00
2022-10-19T04:50:55.533Z,0.00
2022-10-19T04:51:55.529Z,0.00
2022-10-19T04:52:55.528Z,0.00
2022-10-19T04:53:57.008Z,0.00
2022-10-19T04:54:55.541Z,0.00
2022-10-19T04:55:55.506Z,0.00
2022-10-19T04:56:55.524Z,0.00
2022-10-19T04:57:55.509Z,0.00
2022-10-19T04:58:55.491Z,0.00
2022-10-19T04:59:55.511Z,0.00
2022-10-19T05:00:55.524Z,0.00
2022-10-19T05:01:55.456Z,0.00
2022-10-19T05:02:55.450Z,0.00
2022-10-19T05:04:55.437Z,0.00
2022-10-19T05:05:55.435Z,0.00
2022-10-19T05:06:55.425Z,0.00
2022-10-19T05:07:55.418Z,0.00
2022-10-19T05:08:55.404Z,0.00
2022-10-19T05:09:55.401Z,0.00
2022-10-19T05:10:55.528Z,0.00
2022-10-19T05:11:55.386Z,0.00
2022-10-19T05:12:55.419Z,0.00
2022-10-19T05:13:55.376Z,0.00
2022-10-19T05:14:55.368Z,0.00
2022-10-19T05:15:55.360Z,0.00
2022-10-19T05:16:55.375Z,0.00
2022-10-19T05:17:55.339Z,0.00
2022-10-19T05:18:55.436Z,0.00
2022-10-19T05:19:55.329Z,0.00
2022-10-19T05:20:55.327Z,0.00
2022-10-19T05:21:55.317Z,0.00
2022-10-19T05:22:55.319Z,0.00
2022-10-19T05:23:55.307Z,0.00
2022-10-19T05:24:58.070Z,0.00
2022-10-19T05:25:55.283Z,0.00
2022-10-19T05:26:55.323Z,0.00
2022-10-19T05:27:55.273Z,0.00
2022-10-19T05:28:55.314Z,0.00
2022-10-19T05:29:55.314Z,0.00
2022-10-19T05:30:55.260Z,0.00
2022-10-19T05:31:56.043Z,0.00
2022-10-19T05:32:55.246Z,0.00
2022-10-19T05:33:55.349Z,0.00
2022-10-19T05:34:55.217Z,0.00
2022-10-19T05:36:00.409Z,0.00
2022-10-19T05:36:55.224Z,0.00
2022-10-19T05:37:55.207Z,0.00
2022-10-19T05:38:55.207Z,0.00
2022-10-19T05:39:55.205Z,0.00
2022-10-19T05:40:55.180Z,0.00
2022-10-19T05:41:55.192Z,0.00
2022-10-19T05:42:55.188Z,0.00
2022-10-19T05:43:55.160Z,0.00
2022-10-19T05:44:55.158Z,0.00
2022-10-19T05:45:55.147Z,0.00
2022-10-19T05:46:55.679Z,5.62
2022-10-19T05:47:55.142Z,5.62
2022-10-19T05:48:55.123Z,5.62
2022-10-19T05:49:55.115Z,5.62
2022-10-19T05:50:55.119Z,5.62
2022-10-19T05:51:55.872Z,5.62
2022-10-19T05:52:55.111Z,5.62
2022-10-19T05:53:55.099Z,5.62
2022-10-19T05:54:55.087Z,5.62
2022-10-19T05:55:55.191Z,5.62
2022-10-19T05:56:55.079Z,5.62
2022-10-19T05:57:55.068Z,11.25
2022-10-19T05:58:55.113Z,11.25
2022-10-19T05:59:55.066Z,11.25
2022-10-19T06:00:55.727Z,16.88
2022-10-19T06:01:55.082Z,16.88
2022-10-19T06:02:59.101Z,16.88
2022-10-19T06:03:55.021Z,16.88
2022-10-19T06:04:55.022Z,16.88
2022-10-19T06:05:55.004Z,16.88
2022-10-19T06:06:55.026Z,16.88
2022-10-19T06:07:55.008Z,16.88
2022-10-19T06:08:54.990Z,16.88
2022-10-19T06:09:54.992Z,22.50
2022-10-19T06:10:54.980Z,22.50
2022-10-19T06:11:54.977Z,22.50
2022-10-19T06:12:54.964Z,22.50
2022-10-19T06:13:54.951Z,22.50
2022-10-19T06:14:54.985Z,22.50
2022-10-19T06:15:54.942Z,28.12
2022-10-19T06:16:54.995Z,28.12
2022-10-19T06:17:54.931Z,33.75
2022-10-19T06:18:54.939Z,39.38
2022-10-19T06:19:54.919Z,39.38
2022-10-19T06:20:54.910Z,39.38
2022-10-19T06:21:54.895Z,39.38
2022-10-19T06:22:54.883Z,39.38
2022-10-19T06:23:54.898Z,39.38
2022-10-19T06:24:54.883Z,45.00
2022-10-19T06:25:54.863Z,50.62
2022-10-19T06:26:54.858Z,56.25
2022-10-19T06:27:54.901Z,61.88
2022-10-19T06:28:55.598Z,61.88
2022-10-19T06:29:54.842Z,61.88
2022-10-19T06:30:54.921Z,67.50
2022-10-19T06:31:54.820Z,67.50
2022-10-19T06:32:54.894Z,67.50
2022-10-19T06:33:56.018Z,67.50
2022-10-19T06:34:56.527Z,73.12
2022-10-19T06:35:54.811Z,78.75
2022-10-19T06:36:54.778Z,84.38
2022-10-19T06:37:54.777Z,84.38
2022-10-19T06:38:54.790Z,84.38
2022-10-19T06:39:54.841Z,84.38
2022-10-19T06:40:54.759Z,84.38
2022-10-19T06:41:54.747Z,84.38
2022-10-19T06:42:54.734Z,84.38
2022-10-19T06:43:54.732Z,78.75
2022-10-19T06:44:54.730Z,78.75
2022-10-19T06:45:54.726Z,84.38
2022-10-19T06:46:54.732Z,90.00
2022-10-19T06:47:54.712Z,101.25
2022-10-19T06:48:54.695Z,106.88
2022-10-19T06:49:54.697Z,106.88
2022-10-19T06:50:54.704Z,106.88
2022-10-19T06:51:54.703Z,106.88
2022-10-19T06:52:54.674Z,106.88
2022-10-19T06:53:57.004Z,106.88
2022-10-19T06:54:54.650Z,106.88
2022-10-19T06:55:54.639Z,112.50
2022-10-19T06:56:54.649Z,118.12
2022-10-19T06:57:54.641Z,118.12
2022-10-19T06:58:54.640Z,112.50
2022-10-19T06:59:54.633Z,118.12
2022-10-19T07:00:54.667Z,112.50
2022-10-19T07:01:54.619Z,123.75
2022-10-19T07:02:54.622Z,135.00
2022-10-19T07:03:54.651Z,135.00
2022-10-19T07:04:54.595Z,146.25
2022-10-19T07:05:54.577Z,157.50
2022-10-19T07:06:54.602Z,151.88
2022-10-19T07:07:54.633Z,146.25
2022-10-19T07:08:54.568Z,140.62
2022-10-19T07:09:54.572Z,140.62
2022-10-19T07:10:54.550Z,151.88
2022-10-19T07:11:54.550Z,151.88
2022-10-19T07:12:54.627Z,140.62
2022-10-19T07:13:54.519Z,140.62
2022-10-19T07:14:54.520Z,146.25
2022-10-19T07:15:54.529Z,151.88
2022-10-19T07:16:54.524Z,163.12
2022-10-19T07:17:54.502Z,168.75
2022-10-19T07:18:54.511Z,168.75
2022-10-19T07:19:54.534Z,168.75
2022-10-19T07:20:54.484Z,168.75
2022-10-19T07:21:54.475Z,185.62
2022-10-19T07:22:54.464Z,196.88
2022-10-19T07:23:54.488Z,191.25
2022-10-19T07:24:54.451Z,185.62
2022-10-19T07:25:54.437Z,185.62
2022-10-19T07:26:54.436Z,168.75
2022-10-19T07:27:54.426Z,163.12
2022-10-19T07:28:54.415Z,174.38
2022-10-19T07:29:54.431Z,191.25
2022-10-19T07:30:55.134Z,208.12
2022-10-19T07:31:54.401Z,202.50
2022-10-19T07:32:54.430Z,196.88
2022-10-19T07:33:54.382Z,191.25
2022-10-19T07:34:54.425Z,191.25
2022-10-19T07:35:54.373Z,185.62
2022-10-19T07:36:54.412Z,191.25
2022-10-19T07:37:54.361Z,196.88
2022-10-19T07:38:54.351Z,202.50
2022-10-19T07:39:54.355Z,202.50
2022-10-19T07:40:54.346Z,196.88
2022-10-19T07:41:54.341Z,180.00
2022-10-19T07:42:54.339Z,174.38
2022-10-19T07:43:54.321Z,180.00
2022-10-19T07:44:54.304Z,202.50
2022-10-19T07:45:54.323Z,241.88
2022-10-19T07:46:54.304Z,270.00
2022-10-19T07:47:54.288Z,298.12
2022-10-19T07:48:54.328Z,326.25
2022-10-19T07:49:54.270Z,382.50
2022-10-19T07:50:54.281Z,360.00
2022-10-19T07:51:54.331Z,315.00
2022-10-19T07:52:54.920Z,309.38
2022-10-19T07:53:54.246Z,309.38
2022-10-19T07:54:54.248Z,348.75
2022-10-19T07:55:54.241Z,450.00
2022-10-19T07:56:54.218Z,489.38
2022-10-19T07:57:54.220Z,444.38
2022-10-19T07:58:54.233Z,461.25
2022-10-19T07:59:54.199Z,478.12
2022-10-19T08:00:54.198Z,461.25
2022-10-19T08:01:54.262Z,517.50
2022-10-19T08:03:00.056Z,534.38
2022-10-19T08:05:01.057Z,601.88
2022-10-19T08:05:55.159Z,635.62
2022-10-19T08:06:54.176Z,551.25
2022-10-19T08:07:54.138Z,528.75
2022-10-19T08:08:54.219Z,523.12
2022-10-19T08:09:54.525Z,506.25
2022-10-19T08:10:54.139Z,495.00
2022-10-19T08:11:54.118Z,500.62
2022-10-19T08:12:54.110Z,573.75
2022-10-19T08:13:54.100Z,691.88
2022-10-19T08:14:54.106Z,781.88
2022-10-19T08:15:54.095Z,781.88
2022-10-19T08:16:54.086Z,748.12
2022-10-19T08:17:54.087Z,720.00
2022-10-19T08:18:54.087Z,686.25
2022-10-19T08:19:54.494Z,630.00
2022-10-19T08:20:54.057Z,534.38
2022-10-19T08:21:54.049Z,517.50
2022-10-19T08:22:57.938Z,523.12
2022-10-19T08:23:55.037Z,534.38
2022-10-19T08:24:54.033Z,540.00
2022-10-19T08:25:54.024Z,590.62
2022-10-19T08:26:54.246Z,596.25
2022-10-19T08:27:54.008Z,596.25
2022-10-19T08:28:53.990Z,618.75
2022-10-19T08:29:54.002Z,675.00
2022-10-19T08:30:53.987Z,720.00
2022-10-19T08:31:54.076Z,759.38
2022-10-19T08:32:53.971Z,793.12
2022-10-19T08:33:53.962Z,781.88
2022-10-19T08:34:53.970Z,810.00
2022-10-19T08:35:53.980Z,821.25
2022-10-19T08:36:53.960Z,781.88
2022-10-19T08:37:54.343Z,742.50
2022-10-19T08:38:53.956Z,765.00
2022-10-19T08:39:53.948Z,787.50
2022-10-19T08:40:53.916Z,871.88
2022-10-19T08:41:54.769Z,1051.88
2022-10-19T08:42:53.905Z,967.50
2022-10-19T08:43:53.897Z,945.00
2022-10-19T08:44:53.897Z,950.62
2022-10-19T08:45:53.883Z,916.88
2022-10-19T08:46:53.889Z,916.88
2022-10-19T08:47:53.869Z,995.62
2022-10-19T08:48:53.863Z,1001.25
2022-10-19T08:49:54.164Z,1029.38
2022-10-19T08:50:53.855Z,1125.00
2022-10-19T08:51:53.834Z,1170.00
2022-10-19T08:52:53.837Z,1248.75
2022-10-19T08:53:53.824Z,1226.25
2022-10-19T08:54:53.844Z,1366.88
2022-10-19T08:55:54.132Z,1288.12
2022-10-19T08:56:53.821Z,1620.00
2022-10-19T08:57:53.797Z,1608.75
2022-10-19T08:58:53.798Z,1743.75
2022-10-19T08:59:53.793Z,2041.88
2022-10-19T09:00:53.792Z,1395.00
2022-10-19T09:01:53.771Z,1608.75
2022-10-19T09:02:53.768Z,1665.00
2022-10-19T09:03:56.207Z,1597.50
2022-10-19T09:04:53.771Z,1440.00
2022-10-19T09:05:53.767Z,1288.12
2022-10-19T09:06:53.734Z,1434.38
2022-10-19T09:07:53.730Z,1507.50
2022-10-19T09:08:53.806Z,1327.50
2022-10-19T09:09:53.742Z,1147.50
2022-10-19T09:10:53.771Z,1130.62
2022-10-19T09:11:53.700Z,1237.50
2022-10-19T09:12:56.377Z,1243.12
2022-10-19T09:14:04.727Z,1282.50
2022-10-19T09:14:54.700Z,1417.50
2022-10-19T09:15:53.674Z,1676.25
2022-10-19T09:16:53.710Z,1856.25
2022-10-19T09:17:53.662Z,1861.88
2022-10-19T09:19:53.642Z,1541.25
2022-10-19T09:20:54.066Z,1546.88
2022-10-19T09:21:53.625Z,1833.75
2022-10-19T09:22:53.626Z,1929.38
2022-10-19T09:23:53.621Z,1434.38
2022-10-19T09:24:53.610Z,1231.88
2022-10-19T09:25:53.616Z,1282.50
2022-10-19T09:26:53.623Z,1524.38
2022-10-19T09:27:53.664Z,1726.88
2022-10-19T09:28:53.582Z,1687.50
2022-10-19T09:29:53.569Z,1423.12
2022-10-19T09:30:53.577Z,1440.00
2022-10-19T09:31:53.612Z,1490.62
2022-10-19T09:32:53.642Z,1248.75
2022-10-19T09:33:53.995Z,1147.50
2022-10-19T09:34:53.541Z,1046.25
2022-10-19T09:35:53.569Z,1040.62
2022-10-19T09:36:53.623Z,1029.38
2022-10-19T09:37:53.559Z,1006.88
2022-10-19T09:38:53.522Z,1023.75
2022-10-19T09:39:54.972Z,984.38
2022-10-19T09:40:53.500Z,1040.62
2022-10-19T09:41:53.808Z,1096.88
2022-10-19T09:42:54.469Z,1035.00
2022-10-19T09:43:53.913Z,877.50
2022-10-19T09:44:53.467Z,759.38
2022-10-19T09:45:53.466Z,748.12
2022-10-19T09:46:53.482Z,877.50
2022-10-19T09:47:53.453Z,905.62
2022-10-19T09:48:53.523Z,888.75
2022-10-19T09:49:53.990Z,866.25
2022-10-19T09:50:53.528Z,776.25
2022-10-19T09:51:53.440Z,877.50
2022-10-19T09:52:53.480Z,967.50
2022-10-19T09:53:54.564Z,871.88
2022-10-19T09:54:53.437Z,894.38
2022-10-19T09:55:53.927Z,978.75
2022-10-19T09:56:53.382Z,1805.62
2022-10-19T09:57:53.398Z,1057.50
2022-10-19T09:58:53.402Z,1136.25
2022-10-19T09:59:53.354Z,1035.00
2022-10-19T10:00:53.882Z,1766.25
2022-10-19T10:01:53.440Z,1147.50
2022-10-19T10:02:53.370Z,1018.12
2022-10-19T10:03:55.871Z,1063.12
2022-10-19T10:04:53.377Z,1006.88
2022-10-19T10:05:54.468Z,1096.88
2022-10-19T10:06:53.713Z,1659.38
2022-10-19T10:07:53.805Z,1164.38
2022-10-19T10:08:53.375Z,1080.00
2022-10-19T10:09:53.342Z,1068.75
2022-10-19T10:10:53.301Z,1153.12
2022-10-19T10:12:53.314Z,1023.75
2022-10-19T10:13:53.296Z,1361.25
2022-10-19T10:14:53.282Z,888.75
2022-10-19T10:15:53.277Z,1029.38
2022-10-19T10:16:53.239Z,1406.25
2022-10-19T10:17:53.261Z,1141.88
2022-10-19T10:18:53.246Z,1164.38
2022-10-19T10:19:53.207Z,731.25
2022-10-19T10:20:53.302Z,1046.25
2022-10-19T10:21:53.258Z,781.88
2022-10-19T10:22:53.232Z,1361.25
2022-10-19T10:23:53.230Z,1355.62
2022-10-19T10:24:53.282Z,1192.50
2022-10-19T10:25:53.255Z,1198.12
2022-10-19T10:26:53.232Z,1440.00
2022-10-19T10:27:53.247Z,1175.62
2022-10-19T10:28:53.890Z,1085.62
2022-10-19T10:29:53.213Z,1091.25
2022-10-19T10:30:53.211Z,1119.38
2022-10-19T10:31:53.185Z,1029.38
2022-10-19T10:32:53.178Z,1029.38
2022-10-19T10:34:56.904Z,939.38
2022-10-19T10:35:54.120Z,984.38
2022-10-19T10:36:53.195Z,1102.50
2022-10-19T10:37:53.119Z,1327.50
2022-10-19T10:38:53.250Z,1445.62
2022-10-19T10:39:53.110Z,883.12
2022-10-19T10:40:53.139Z,781.88
2022-10-19T10:41:53.110Z,815.62
2022-10-19T10:42:53.127Z,793.12
2022-10-19T10:43:53.257Z,832.50
2022-10-19T10:44:53.091Z,1209.38
2022-10-19T10:45:53.063Z,860.62
2022-10-19T10:46:53.072Z,832.50
2022-10-19T10:47:53.063Z,787.50
2022-10-19T10:48:53.484Z,776.25
2022-10-19T10:49:53.112Z,753.75
2022-10-19T10:50:53.081Z,731.25
2022-10-19T10:51:53.258Z,720.00
2022-10-19T10:52:53.032Z,731.25
2022-10-19T10:53:52.997Z,742.50
2022-10-19T10:54:53.066Z,781.88
2022-10-19T10:55:53.075Z,810.00
2022-10-19T10:56:53.046Z,900.00
2022-10-19T10:57:52.972Z,967.50
2022-10-19T10:58:53.222Z,973.12
2022-10-19T10:59:53.004Z,973.12
2022-10-19T11:00:53.056Z,1023.75
2022-10-19T11:01:53.019Z,984.38
2022-10-19T11:02:52.995Z,984.38
2022-10-19T11:03:53.032Z,1085.62
2022-10-19T11:04:52.990Z,1085.62
2022-10-19T11:05:52.977Z,995.62
2022-10-19T11:06:52.943Z,810.00
2022-10-19T11:07:52.929Z,742.50
2022-10-19T11:08:52.956Z,714.38
2022-10-19T11:09:52.962Z,725.62
2022-10-19T11:10:52.878Z,798.75
2022-10-19T11:11:52.895Z,855.00
2022-10-19T11:12:53.495Z,787.50
2022-10-19T11:13:52.866Z,877.50
2022-10-19T11:14:52.874Z,765.00
2022-10-19T11:15:52.896Z,703.12
2022-10-19T11:16:52.888Z,838.12
2022-10-19T11:17:52.863Z,770.62
2022-10-19T11:18:52.859Z,646.88
2022-10-19T11:19:52.911Z,697.50
2022-10-19T11:20:52.885Z,748.12
2022-10-19T11:21:52.819Z,798.75
2022-10-19T11:22:52.850Z,1293.75
2022-10-19T11:23:52.867Z,1012.50
2022-10-19T11:24:52.834Z,1147.50
2022-10-19T11:25:52.999Z,1327.50
2022-10-19T11:26:52.770Z,1192.50
2022-10-19T11:27:52.894Z,765.00
2022-10-19T11:28:52.794Z,748.12
2022-10-19T11:29:52.893Z,1389.38
2022-10-19T11:30:52.751Z,1608.75
2022-10-19T11:31:52.803Z,1597.50
2022-10-19T11:32:52.739Z,1563.75
2022-10-19T11:33:52.749Z,1648.12
2022-10-19T11:34:52.820Z,1659.38
2022-10-19T11:35:52.745Z,1670.62
2022-10-19T11:36:52.746Z,1676.25
2022-10-19T11:38:17.335Z,1648.12
2022-10-19T11:38:53.733Z,1788.75
2022-10-19T11:39:52.777Z,787.50
2022-10-19T11:41:16.416Z,680.62
2022-10-19T11:41:53.696Z,1175.62
2022-10-19T11:42:52.832Z,618.75
2022-10-19T11:43:52.724Z,708.75
2022-10-19T11:44:52.677Z,1867.50
2022-10-19T11:45:52.677Z,1845.00
2022-10-19T11:46:52.647Z,1743.75
2022-10-19T11:47:52.731Z,1839.38
2022-10-19T11:48:54.808Z,1631.25
2022-10-19T11:49:52.657Z,1738.12
2022-10-19T11:50:54.567Z,1743.75
2022-10-19T11:51:53.632Z,1383.75
2022-10-19T11:52:52.604Z,1400.62
2022-10-19T11:53:52.645Z,1046.25
2022-10-19T11:54:52.634Z,967.50
2022-10-19T11:55:52.627Z,905.62
2022-10-19T11:57:04.960Z,871.88
2022-10-19T11:57:53.568Z,877.50
2022-10-19T11:58:52.570Z,883.12
2022-10-19T11:59:52.660Z,973.12
2022-10-19T12:00:52.553Z,1878.75
2022-10-19T12:01:52.595Z,1440.00
2022-10-19T12:02:52.559Z,1350.00
2022-10-19T12:03:52.542Z,1366.88
2022-10-19T12:04:52.529Z,961.88
2022-10-19T12:05:52.564Z,984.38
2022-10-19T12:06:53.001Z,1861.88
2022-10-19T12:07:52.525Z,843.75
2022-10-19T12:08:55.354Z,849.38
2022-10-19T12:09:52.543Z,894.38
2022-10-19T12:10:52.497Z,1175.62
2022-10-19T12:11:52.472Z,855.00
2022-10-19T12:12:52.564Z,815.62
2022-10-19T12:13:52.521Z,798.75
2022-10-19T12:14:52.487Z,804.38
2022-10-19T12:15:53.672Z,798.75
2022-10-19T12:16:52.436Z,787.50
2022-10-19T12:17:52.490Z,731.25
2022-10-19T12:18:52.426Z,753.75
2022-10-19T12:19:53.068Z,832.50
2022-10-19T12:20:52.451Z,1327.50
2022-10-19T12:21:52.407Z,663.75
2022-10-19T12:22:52.460Z,607.50
2022-10-19T12:23:52.384Z,590.62
2022-10-19T12:24:52.409Z,855.00
2022-10-19T12:25:52.378Z,680.62
2022-10-19T12:26:52.463Z,652.50
2022-10-19T12:27:52.379Z,624.38
2022-10-19T12:28:52.385Z,793.12
2022-10-19T12:29:52.356Z,1215.00
2022-10-19T12:30:52.428Z,1563.75
2022-10-19T12:31:52.352Z,1755.00
2022-10-19T12:32:54.258Z,2165.62
2022-10-19T12:33:52.410Z,2430.00
2022-10-19T12:34:52.699Z,2531.25
2022-10-19T12:35:52.315Z,2598.75
2022-10-19T12:36:52.338Z,2323.12
2022-10-19T12:37:52.293Z,2351.25
2022-10-19T12:39:00.087Z,2160.00
2022-10-19T12:39:53.341Z,1923.75
2022-10-19T12:40:52.276Z,1749.38
2022-10-19T12:41:52.283Z,1687.50
2022-10-19T12:42:52.310Z,1541.25
2022-10-19T12:43:52.521Z,810.00
2022-10-19T12:44:54.966Z,703.12
2022-10-19T12:45:53.312Z,714.38
2022-10-19T12:46:53.080Z,978.75
2022-10-19T12:47:52.280Z,1091.25
2022-10-19T12:48:52.307Z,528.75
2022-10-19T12:49:52.267Z,652.50
2022-10-19T12:50:52.285Z,590.62
2022-10-19T12:51:52.281Z,900.00
2022-10-19T12:52:52.230Z,1023.75
2022-10-19T12:53:52.193Z,821.25
2022-10-19T12:54:52.279Z,978.75